Airfield :
LOGIN :

Register | Disclaimer

   EN    FR    IT 

 










Legend :    VFR   Marginal VFR   IFR   Intensive IFR   Very Intensive IFR
Visi :
Ceiling :
>= 8 km
>= 3000ft
5 to 8 km
1000 to 3000 ft
1500m to 5 km
500 to 1000 ft
800 to 1500m
200 to 500 ft
< 800m
< 200 ft
Symbols :   Thunderstorms  Fog  Heavy snow  Heavy precipitations  Wind > 20 kt
SIGMETs :     Misc.  Thunderstorms  Icing  Turbulence  Mountain Waves  Volcanic Ashes






- Airport Elevation : 1273 ft
- IATA code : LJU


LJLJ - Ljubljana

CURRENT METAR :
  • 020300Z 30004KT 8000 -RA FEW003 BKN013 OVC030 02/01 Q1020 NOSIG

EXPIRED METARs :
  • 020230Z 31002KT 8000 -RA FEW003 BKN013 OVC030 02/01 Q1020 NOSIG
  • 020200Z 31002KT 8000 -RA FEW003 BKN013 OVC030 02/01 Q1020 NOSIG
  • 020130Z 31002KT 8000 -RA FEW003 BKN013 OVC030 02/01 Q1020 NOSIG
  • 020100Z 31002KT 8000 -RA FEW003 BKN013 OVC030 02/02 Q1020 NOSIG
  • 020030Z 31002KT 8000 -RA BKN013 OVC030 02/02 Q1020 NOSIG

TAF TAF LJLJ
Valid from the 02 at 00:00 until the 03 at 00:00 UTC


012300Z 0200/0300 VRB02KT 7000 -RA SCT015 BKN035
TEMPO 0200/0300 3500 -RASN BR BKN012 OVC025
PROB30
TEMPO 0200/0211 2000 SNRA BR BKN005 OVC010



MET'MAP, your aeronautical weather chart ! - Copyright ORBIFLY December 2007 - Disclaimer

ORBIFLY MET'MAP TEAM :

Programming & Development : Alexandra Zaïnal
Original concept : Baudouin d'Aumeries
Technical & hardware support : Manuel Goepfert
Assistance : Marc-Olivier Méhu




SOURCES & CREDITS :

   NOAA